News    GLOBAL    TV    HD    3D    Ultra HD    Radio    Data    Temp.FTA    [-]    Vapaa

Euroopan Satelliitti zap ja luettelo
Kanavahaku:
SES-6 (40.5°W) - Radio stations
UUTISET - [+] [-] - Väliaikaisesti FTA kanavia - KANAVAT - PAKETIT - KEILAT - HAUTAUSMAA
43.0W>
<37.5W

Asemapaikka Satelliitti Norad .ini News kanavaa Vain vapaat Longitude Declination now Max declination Azimuth Elevation Viimeksi päivitetty
40.5°W SES-6 39172 296 169 40.46°W 0.02° 0.02° N/A N/A 2021-11-28 10:42


Käyttää seuraavaa kieltä: Select a beam: Lajittelu: Salaus:

67 Osumaa - Lajittelu taajuuden mukaan - Viimeiset päivitykset: 2021-11-28 10:42 CET

Pos Satellite Frequence Pol Txp Beam Standard Modulation SR/FEC Network, bitrate NID TID
40.5°W 1SES-6 3648.00R51HemiDVB-S28PSK6666 2/36 569 kb/s 513513 KingOfSat charts update form
SB-FM Vapaa 3   341  300  8176    2018-11-10
40.5°W 1SES-6 3652.00L52HemiDVB-SQPSK4000 5/6152 b/s 01 KingOfSat charts update form
GRANDE RIO FM HBC Telecom Vapaa 2   43  257  43    2021-04-11
40.5°W 1SES-6 3803.00L60HemiDVB-S28PSK32720 5/6{90DDA122-D72A-44F4-8716-F5971, 5 068 b/s 100100 KingOfSat charts update form
Duna World Radio (DWR) SES Vapaa 2   33 hun  34  33    2021-03-07
40.5°W 16SES-6 3920.00R65HemiDVB-S2QPSK20000 3/5BFBS, 23.8 Mb/s 184 KingOfSat charts update form
28 BFBS Vapaa 8223   423  1223  423    2021-07-10
02 BFBS Radio 2 BFBS Irdeto 2 8224   424  1224  424    2021-07-10
22 BFBS Unwind BFBS Vapaa 8226   426  1226  426    2021-07-10
01 BFBS UK BFBS Vapaa 8227   427  1227  427    2021-07-10
29 (Contribution) BFBS Irdeto 2 8228   428  1228  428    2021-07-10
05 BFBS Navy BFBS Vapaa 8231   431  1231  431    2021-07-10
19 BFBS Beats BFBS Vapaa 8232   432  1232  432    2021-07-10
03 BFBS Gurkha BFBS Vapaa 8233   433  1233  433    2021-07-10
20 BFBS Edge BFBS Vapaa 8234   434  1234  434    2021-07-10
21 BFBS Rewind BFBS Vapaa 8235   435  1235  435    2021-07-10
11 BFBS Canada BFBS Irdeto 2 8236   436  1236  436    2021-07-10
23 BFBS Samishran BFBS Vapaa 8237   437  1237  437    2021-07-10
13 BFBS Falklands BFBS Vapaa 8238   438  1238  438    2021-07-10
24 Falklands Radio BFBS Vapaa 8239   439  1239  439    2021-07-10
27 World Service BFBS Irdeto 2 8240   440  1240  440    2021-07-10
09 BFBS Belize BFBS Vapaa 8246   446  1246  446    2021-07-10
40.5°W 1SES-6 3967.00R67HemiDVB-S28PSK5000 2/3R Gospel, 9 678 kb/s 11 KingOfSat charts update form
Nimi Maa Ohjelmatyyppi Paketit Salaus SID VPID Audio PMT PCR TXT Viimeksi päivitetty
RD GOSPEL R Gospel Vapaa 2   4113  2000  8190    2020-02-08
40.5°W 1SES-6 3979.00L68HemiDVB-S28PSK21600 3/4NSS806, 52.3 Mb/s 1101 KingOfSat charts update form
Disney Radio PowerVu 555   999  5555  999    2021-05-25
40.5°W 2SES-6 4012.00L70HemiDVB-S2
T2-MI, PLP 101
8PSK9830 3/419.2 Mb/s 00 KingOfSat charts update form
RADIO NACIONAL RTVC 44 1131  1130      2021-09-18
RADIONICA RTVC 45 1141  1140      2021-09-18
40.5°W 11SES-6 4025.00L70HemiDVB-S28PSK12832 3/4NEW Compression_5TS, 27.9 Mb/s 83621 KingOfSat charts update form
RADIO NACIONAL RTVC Vapaa 13   1131  1130  8191    2021-03-07
RADIONICA RTVC Vapaa 14   1141  1140  8191    2021-03-07
EJERCITO RTVC Vapaa 16   1161 esp  1160  8191    2021-03-07
RADNAL BQUILLA RTVC Vapaa 17   1171 esp
1172 eng
1173 eng
1174 eng 
1170  8191    2021-03-07
RADNAL QUIBDO RTVC Vapaa 18   1181 eng
1182 eng 
1180  8191    2021-03-07
RADNAL VVICENCIO RTVC Vapaa 19   1191 eng  1190  8191    2021-03-07
RADIONICA CALI RTVC Vapaa 20   1201 eng  1200  8191    2021-03-07
RADNAL FONSECA RTVC Vapaa 21   1211 eng  1210  8191    2021-03-07
RADNAL CONVENCION RTVC Vapaa 22   1221 eng  1220  8191    2021-03-07
RADNAL SAN JACINTO RTVC Vapaa 23   1231 eng  1230  8191    2021-03-07
RADNAL CHAPARRAL RTVC Vapaa 24   1241 eng  1240  8191    2021-03-07
40.5°W 1SES-6 4029.00R69HemiDVB-S28PSK8000 3/417.8 Mb/s 11 KingOfSat charts update form
Intercom RCN TV Vapaa 10   710 esp  110  8191    2019-06-01
40.5°W 9SES-6 4086.00L74HemiDVB-S28PSK15000 2/329.0 Mb/s 11 KingOfSat charts update form
Nimi Maa Ohjelmatyyppi Paketit Salaus SID VPID Audio PMT PCR TXT Viimeksi päivitetty
RD ESP NOVO TEMPO Vapaa 6   510  1006  510    2021-04-11
RD ESP BOLIVIA NOVO TEMPO Vapaa 7   520  1007  520    2021-04-11
RD ESP ARGENTINA NOVO TEMPO Vapaa 8   530  1008  530    2021-04-11
RD ESP PERU NOVO TEMPO Vapaa 9   540  1009  540    2021-04-11
RD ESP CHILE NOVO TEMPO Vapaa 10   550  1010  550    2021-04-11
RD ESP PARAGUAI NOVO TEMPO Vapaa 11   560  1011  560    2021-04-11
RD ESP URUGUAI NOVO TEMPO Vapaa 12   570  1012  570    2021-04-11
RD ESP EQUADOR NOVO TEMPO Vapaa 13   580  1013  580    2021-04-11
CUETONE NOVO TEMPO Vapaa 14   590  1014  590    2021-04-11
40.5°W 1SES-6 4111.00L74HemiDVB-S2
T2-MI, PLP 0
8PSK4286 3/4TELEPACIFICO, 8 032 kb/s 00 KingOfSat charts update form
Radio_Telepacifico TELEPACIFICO Vapaa 6124 4123 esp  2050      2021-03-07
40.5°W 16SES-6 4132.00R75HemiDVB-S2QPSK22500 3/5BFBS, 154 kb/s 184 KingOfSat charts update form
28 BFBS Vapaa 8223   423  1223  423    2021-09-19
02 BFBS Radio 2 BFBS Irdeto 2 8224   424  1224  424    2021-09-19
22 BFBS Unwind BFBS Vapaa 8226   426  1226  426    2021-09-19
01 BFBS UK BFBS Vapaa 8227   427  1227  427    2021-09-19
29 (Contribution) BFBS Irdeto 2 8228   428  1228  428    2021-09-19
05 BFBS Navy BFBS Vapaa 8231   431  1231  431    2021-09-19
19 BFBS Beats BFBS Vapaa 8232   432  1232  432    2021-09-19
03 BFBS Gurkha BFBS Vapaa 8233   433  1233  433    2021-09-19
20 BFBS Edge BFBS Vapaa 8234   434  1234  434    2021-09-19
21 BFBS Rewind BFBS Vapaa 8235   435  1235  435    2021-09-19
11 BFBS Canada BFBS Irdeto 2 8236   436  1236  436    2021-09-19
23 BFBS Samishran BFBS Vapaa 8237   437  1237  437    2021-09-19
13 BFBS Falklands BFBS Vapaa 8238   438  1238  438    2021-09-19
24 Falklands Radio BFBS Vapaa 8239   439  1239  439    2021-09-19
27 World Service BFBS Irdeto 2 8240   440  1240  440    2021-09-19
09 BFBS Belize BFBS Vapaa 8246   446  1246  446    2021-09-19
40.5°W 5SES-6 4169.00R77HemiDVB-S28PSK18390 2/3TVCN MUXC3, 35.6 Mb/s 11 KingOfSat charts update form
Rd Cacap TV CN MUX Vapaa 2   1840  1834  4129    2021-09-18
Rd RJ TV CN MUX Vapaa 5   1832  1831  4129    2018-11-10
Rd FM TV CN MUX Vapaa 6   1826 por  1825  4129    2018-11-10
Rd AM TV CN MUX Vapaa 7   1828 por  1827  4129    2018-11-10
Rd Serv TV CN MUX Vapaa 8   1830 por  1829  4129    2018-11-10
40.5°W 1SES-6 4183.00L78HemiDVB-S2
T2-MI, PLP 106
8PSK5000 3/4TELECARIBE, 10.3 Mb/s 00 KingOfSat charts update form
Sistema Cardenal Harmonic Vapaa 6025 4123  2059      2019-08-10

Lähetä kommenttisi/Päivityksesi

Selitys

8K - Ultra HD

4K - Ultra HD

HD

Laajakuva

     

Video: MPEG-4/AVC/H-264

     

Video: MPEG-H/HEVC/H-265

     

Video: MPEG-I/VVC/H-266

     

Vapaa

     

Encrypted

Näyttää ruutukuvan

3D

LIVE video lähetystä

+

Kanavan tiedot

     

DVB-S

     

DVB-S2

     

DVB-S2X


PROFIILI - HAKEMISTO - UUTISET - SATELLIITIT - PAKETIT - KANAVAT - HAKU - KEILAT - FEEDSIT - HAUTAUSMAA - Lähetä kommenttisi/Päivityksesi

All contents on this site are protected by copyright and owned by KingOfSat, except contents shown in some screenshots that belong to their respective owners. Screenshots are only proposed to help illustrating, identifying and promoting corresponding TV channels. For all questions/remarks related to copyright, please contact KingOfSat webmaster.